Time;durP1;ratioP1;P1;durP2;ratioP2;P2;SDS_P1;SDS_P2;PMS_P1;PMS_P2;Temp;Humidity;BMP_temperature;BMP_pressure;BME280_temperature;BME280_humidity;BME280_pressure;Samples;Min_cycle;Max_cycle;Signal;HPM_P1;HPM_P2
2022/05/23 00:00:30;;;;;;;3.17;2.60;;;16.30;73.40;;;;;;1828888;78;21080;-59
2022/05/23 00:02:59;;;;;;;4.20;2.08;;;16.20;73.40;;;;;;1828968;77;21083;-59
2022/05/23 00:05:29;;;;;;;2.90;2.33;;;16.20;73.50;;;;;;1829115;77;21156;-59
2022/05/23 00:07:59;;;;;;;5.37;2.10;;;16.20;73.70;;;;;;1829116;78;21064;-59
2022/05/23 00:10:28;;;;;;;5.83;2.40;;;16.20;73.70;;;;;;1828875;78;21165;-59
2022/05/23 00:12:57;;;;;;;3.05;1.98;;;16.10;73.60;;;;;;1828961;78;21095;-59
2022/05/23 00:15:27;;;;;;;2.65;2.20;;;16.10;73.60;;;;;;1829002;78;21047;-59
2022/05/23 00:17:56;;;;;;;17.12;2.12;;;16.10;73.70;;;;;;1828849;77;21134;-59
2022/05/23 00:20:26;;;;;;;2.67;2.02;;;16.00;73.90;;;;;;1828881;78;21430;-59
2022/05/23 00:22:56;;;;;;;5.20;2.30;;;16.00;74.10;;;;;;1828908;77;21196;-59
2022/05/23 00:25:26;;;;;;;2.80;2.08;;;15.90;74.10;;;;;;1828958;78;21028;-59
2022/05/23 00:27:55;;;;;;;4.20;2.62;;;16.00;74.20;;;;;;1819468;77;21160;-59
2022/05/23 00:30:27;;;;;;;3.77;2.20;;;15.90;74.40;;;;;;1817443;79;21038;-59
2022/05/23 00:35:46;;;;;;;2.83;2.35;;;15.90;74.60;;;;;;1817394;79;21049;-59
2022/05/23 00:38:16;;;;;;;3.77;2.27;;;15.90;74.80;;;;;;1816958;78;21577;-59
2022/05/23 00:43:55;;;;;;;3.27;2.72;;;15.80;75.00;;;;;;1786976;79;21072;-59
2022/05/23 00:46:25;;;;;;;5.28;2.35;;;15.80;75.20;;;;;;1783260;79;21056;-59
2022/05/23 00:48:54;;;;;;;4.78;2.87;;;15.70;76.10;;;;;;1798171;80;21517;-59
2022/05/23 00:51:42;;;;;;;2.67;2.45;;;15.80;75.50;;;;;;1787144;80;21138;-59
2022/05/23 00:54:13;;;;;;;3.00;2.75;;;15.70;75.60;;;;;;1856321;77;21049;-59
2022/05/23 00:56:45;;;;;;;5.37;2.30;;;15.70;76.10;;;;;;1796699;79;21057;-59
2022/05/23 00:59:23;;;;;;;3.75;2.92;;;15.70;75.90;;;;;;1850254;76;21039;-59
2022/05/23 01:01:52;;;;;;;11.75;3.37;;;15.70;76.20;;;;;;1834863;78;21506;-59
2022/05/23 01:04:23;;;;;;;7.42;2.22;;;15.70;76.10;;;;;;1823710;78;21064;-59
2022/05/23 01:06:53;;;;;;;4.47;2.85;;;15.60;76.60;;;;;;1823645;79;21141;-59
2022/05/23 01:09:23;;;;;;;5.00;3.33;;;15.60;76.30;;;;;;1823630;78;21118;-59
2022/05/23 01:11:53;;;;;;;5.35;2.70;;;15.60;76.60;;;;;;1823841;79;21049;-59
2022/05/23 01:14:23;;;;;;;5.67;3.15;;;15.60;76.70;;;;;;1823747;77;21119;-59
2022/05/23 01:16:52;;;;;;;5.22;2.55;;;15.70;76.90;;;;;;1823694;77;21053;-59
2022/05/23 01:19:22;;;;;;;4.80;2.52;;;15.70;76.90;;;;;;1823712;79;21068;-59
2022/05/23 01:22:00;;;;;;;5.10;2.67;;;15.60;77.00;;;;;;1823839;78;21053;-58
2022/05/23 01:24:54;;;;;;;3.02;2.67;;;15.60;77.20;;;;;;1850224;77;21026;-59
2022/05/23 01:27:25;;;;;;;4.87;3.00;;;15.60;77.20;;;;;;1835474;78;21051;-59
2022/05/23 01:29:55;;;;;;;4.37;3.00;;;15.60;77.20;;;;;;1823752;79;21057;-59
2022/05/23 01:32:25;;;;;;;3.22;2.60;;;15.60;77.00;;;;;;1823658;78;21053;-59
2022/05/23 01:34:56;;;;;;;4.47;2.98;;;15.60;77.20;;;;;;1823653;79;21484;-59
2022/05/23 01:37:26;;;;;;;4.92;2.52;;;15.60;76.90;;;;;;1823704;78;21178;-59
2022/05/23 01:40:11;;;;;;;7.22;2.80;;;15.50;77.00;;;;;;1794829;77;21056;-59
2022/05/23 01:42:49;;;;;;;4.80;2.62;;;15.50;76.90;;;;;;1816593;78;21138;-59
2022/05/23 01:45:21;;;;;;;3.87;2.30;;;15.50;77.00;;;;;;1823675;78;21127;-59
2022/05/23 01:47:51;;;;;;;2.95;2.50;;;15.50;77.30;;;;;;1823713;77;21174;-59
2022/05/23 01:50:23;;;;;;;5.15;2.65;;;15.40;77.20;;;;;;1823659;78;21081;-59
2022/05/23 01:52:55;;;;;;;4.00;2.47;;;15.40;77.20;;;;;;1850062;77;21159;-59
2022/05/23 01:55:26;;;;;;;5.58;2.70;;;15.40;77.30;;;;;;1832539;78;21348;-59
2022/05/23 01:58:15;;;;;;;4.67;2.70;;;15.40;77.30;;;;;;1822941;77;21159;-59
2022/05/23 02:03:33;;;;;;;4.90;3.33;;;15.50;77.40;;;;;;1850208;76;21062;-59
2022/05/23 02:06:03;;;;;;;4.25;2.90;;;15.50;77.40;;;;;;1835706;78;21036;-59
2022/05/23 02:08:32;;;;;;;3.45;2.83;;;15.50;77.40;;;;;;1823682;79;21101;-59
2022/05/23 02:11:01;;;;;;;4.33;2.50;;;15.50;77.40;;;;;;1823676;78;21049;-59
2022/05/23 02:13:34;;;;;;;3.27;2.70;;;15.50;77.50;;;;;;1850235;76;21144;-59
2022/05/23 02:16:04;;;;;;;5.50;3.17;;;15.50;77.50;;;;;;1835645;77;21077;-59
2022/05/23 02:18:45;;;;;;;3.77;2.70;;;15.60;77.40;;;;;;1823646;78;21033;-59
2022/05/23 02:21:16;;;;;;;6.03;2.90;;;15.60;77.50;;;;;;1823661;77;21077;-59
2022/05/23 02:23:45;;;;;;;3.33;2.80;;;15.60;77.50;;;;;;1823573;77;21058;-59
2022/05/23 02:26:15;;;;;;;6.17;2.90;;;15.60;77.50;;;;;;1823716;77;21111;-59
2022/05/23 02:28:55;;;;;;;3.05;2.70;;;15.60;77.40;;;;;;1799832;79;21056;-60
2022/05/23 02:31:26;;;;;;;5.35;3.00;;;15.60;77.40;;;;;;1822250;78;21088;-60
2022/05/23 02:34:03;;;;;;;4.08;2.70;;;15.60;77.50;;;;;;1850099;76;21066;-60
2022/05/23 02:36:36;;;;;;;7.60;3.17;;;15.60;77.50;;;;;;1849576;77;21507;-60
2022/05/23 02:39:06;;;;;;;5.28;3.22;;;15.60;77.70;;;;;;1835530;78;21129;-60
2022/05/23 02:41:36;;;;;;;6.22;2.83;;;15.60;77.70;;;;;;1823617;78;21069;-60
2022/05/23 02:44:07;;;;;;;5.05;3.30;;;15.70;78.20;;;;;;1823617;79;21167;-60
2022/05/23 02:46:36;;;;;;;6.47;3.00;;;15.70;77.50;;;;;;1823559;78;21208;-60
2022/05/23 02:49:07;;;;;;;7.25;3.40;;;15.70;77.40;;;;;;1850260;77;21054;-60
2022/05/23 02:51:38;;;;;;;6.37;2.75;;;15.80;77.40;;;;;;1835697;78;21040;-60
2022/05/23 02:54:09;;;;;;;5.50;3.00;;;15.80;77.40;;;;;;1823867;78;21048;-60
2022/05/23 02:56:39;;;;;;;4.15;2.87;;;15.90;77.20;;;;;;1824198;78;21028;-60
2022/05/23 02:59:09;;;;;;;3.58;2.83;;;16.00;77.20;;;;;;1824098;78;21036;-60
2022/05/23 03:03:01;;;;;;;7.95;2.95;;;16.00;77.20;;;;;;1824210;79;21102;-60
2022/05/23 03:04:09;;;;;;;2.60;2.35;;;16.10;77.20;;;;;;1855928;76;21098;-60
2022/05/23 03:06:38;;;;;;;3.27;2.72;;;16.10;77.00;;;;;;1856677;76;21045;-60
2022/05/23 03:09:08;;;;;;;7.22;2.87;;;16.20;77.00;;;;;;1856407;77;21049;-60
2022/05/23 03:11:39;;;;;;;4.90;2.80;;;16.30;76.80;;;;;;1856500;77;21033;-60
2022/05/23 03:14:09;;;;;;;3.67;2.60;;;16.40;76.50;;;;;;1856466;76;21013;-60
2022/05/23 03:16:38;;;;;;;3.10;2.58;;;16.50;76.30;;;;;;1856471;77;21092;-60
2022/05/23 03:19:07;;;;;;;8.33;2.80;;;16.60;76.20;;;;;;1856516;77;21021;-60
2022/05/23 03:27:15;;;;;;;2.87;2.42;;;16.80;75.70;;;;;;1856149;77;21160;-60
2022/05/23 03:29:44;;;;;;;15.63;3.55;;;16.90;75.60;;;;;;1856581;77;21045;-60
2022/05/23 03:32:14;;;;;;;6.90;2.90;;;16.90;75.50;;;;;;1856411;77;21064;-60
2022/05/23 03:34:43;;;;;;;8.40;2.42;;;17.00;75.50;;;;;;1856524;76;21037;-60
2022/05/23 03:37:13;;;;;;;6.12;2.87;;;17.10;75.30;;;;;;1856698;77;21041;-60
2022/05/23 03:39:43;;;;;;;7.87;2.95;;;17.20;75.00;;;;;;1856486;77;21404;-60
2022/05/23 03:42:12;;;;;;;5.15;2.37;;;17.30;74.90;;;;;;1856443;77;21017;-60
2022/05/23 03:44:41;;;;;;;2.75;2.12;;;17.40;74.60;;;;;;1856485;77;21021;-60
2022/05/23 03:47:11;;;;;;;3.80;2.27;;;17.50;74.30;;;;;;1856394;77;21045;-60
2022/05/23 03:49:40;;;;;;;2.70;2.30;;;17.60;73.70;;;;;;1856575;77;21111;-60
2022/05/23 03:52:10;;;;;;;4.58;2.10;;;17.60;73.30;;;;;;1856698;77;21111;-60
2022/05/23 03:54:39;;;;;;;2.58;2.02;;;17.70;73.20;;;;;;1840810;77;21084;-60
2022/05/23 03:57:09;;;;;;;6.87;2.30;;;17.70;72.80;;;;;;1824302;78;21077;-60
2022/05/23 03:59:38;;;;;;;4.33;2.50;;;17.70;72.40;;;;;;1824222;78;21154;-60
2022/05/23 04:02:08;;;;;;;1.62;1.52;;;17.70;71.60;;;;;;1824243;78;21103;-60
2022/05/23 04:04:38;;;;;;;6.53;2.02;;;17.70;71.20;;;;;;1824257;79;21131;-61
2022/05/23 04:07:25;;;;;;;2.20;1.60;;;17.70;70.50;;;;;;1824234;78;21645;-60
2022/05/23 04:09:56;;;;;;;2.27;1.52;;;17.70;69.80;;;;;;1821373;79;21072;-60
2022/05/23 04:12:27;;;;;;;2.75;1.60;;;17.70;69.40;;;;;;1823772;79;21119;-60
2022/05/23 04:14:56;;;;;;;2.45;1.85;;;17.80;69.30;;;;;;1824414;79;21174;-60
2022/05/23 04:17:27;;;;;;;2.50;1.67;;;17.80;69.20;;;;;;1823748;78;21115;-60
2022/05/23 04:19:58;;;;;;;4.12;1.92;;;17.80;68.50;;;;;;1824251;78;21072;-60
2022/05/23 04:22:28;;;;;;;5.33;2.08;;;17.90;68.60;;;;;;1824112;78;21025;-60
2022/05/23 04:24:59;;;;;;;4.03;1.75;;;17.90;68.90;;;;;;1822462;78;21064;-60
2022/05/23 04:27:29;;;;;;;2.70;1.50;;;17.90;68.70;;;;;;1824245;78;21056;-60
2022/05/23 04:29:58;;;;;;;5.10;2.20;;;18.00;68.60;;;;;;1824213;78;21123;-60
2022/05/23 04:35:23;;;;;;;4.97;2.30;;;18.00;68.30;;;;;;1824304;79;21057;-59
2022/05/23 04:37:54;;;;;;;6.15;2.02;;;18.10;68.60;;;;;;1824199;77;21111;-59
2022/05/23 04:40:27;;;;;;;3.35;1.80;;;18.20;68.40;;;;;;1822718;78;21142;-59
2022/05/23 04:42:57;;;;;;;2.25;1.55;;;18.20;68.40;;;;;;1824208;79;21503;-59
2022/05/23 04:45:26;;;;;;;6.47;1.80;;;18.30;68.20;;;;;;1824091;78;21049;-59
2022/05/23 04:50:44;;;;;;;3.47;1.67;;;18.30;68.10;;;;;;1824268;78;21025;-59
2022/05/23 04:53:14;;;;;;;1.95;1.75;;;18.30;67.70;;;;;;1824063;78;21049;-59
2022/05/23 04:55:45;;;;;;;3.15;1.80;;;18.40;67.60;;;;;;1822004;78;21096;-60
2022/05/23 04:58:15;;;;;;;2.37;1.72;;;18.40;67.70;;;;;;1826714;78;21119;-59
2022/05/23 05:00:44;;;;;;;7.20;2.27;;;18.50;67.40;;;;;;1826781;77;21068;-59
2022/05/23 05:03:15;;;;;;;6.70;4.22;;;18.50;67.40;;;;;;1826665;78;21578;-59
2022/05/23 05:05:46;;;;;;;6.67;2.12;;;18.50;67.00;;;;;;1826870;78;21041;-59
2022/05/23 05:08:15;;;;;;;1.45;1.30;;;18.60;67.20;;;;;;1826780;78;21056;-59
2022/05/23 05:10:46;;;;;;;1.95;1.60;;;18.60;67.10;;;;;;1826405;78;21484;-59
2022/05/23 05:13:16;;;;;;;2.33;1.40;;;18.70;67.20;;;;;;1826745;78;21134;-59
2022/05/23 05:15:45;;;;;;;4.92;1.80;;;18.80;66.70;;;;;;1826702;78;21123;-59
2022/05/23 05:18:16;;;;;;;2.90;1.82;;;18.90;66.90;;;;;;1824600;78;21041;-59
2022/05/23 05:20:49;;;;;;;5.62;2.10;;;18.90;65.70;;;;;;1826246;77;21570;-59
2022/05/23 05:23:36;;;;;;;3.02;1.80;;;18.90;65.20;;;;;;1826776;78;21508;-59
2022/05/23 05:26:23;;;;;;;2.47;1.47;;;18.90;65.00;;;;;;1825681;77;21065;-59
2022/05/23 05:28:53;;;;;;;1.70;1.60;;;18.90;65.40;;;;;;1826658;77;21053;-59
2022/05/23 05:31:37;;;;;;;3.92;1.70;;;19.00;65.10;;;;;;1826699;77;21054;-59
2022/05/23 05:34:21;;;;;;;4.03;2.10;;;19.00;65.10;;;;;;1826881;78;21060;-59
2022/05/23 05:36:53;;;;;;;4.65;2.05;;;19.10;65.40;;;;;;1826771;78;21115;-59
2022/05/23 05:39:27;;;;;;;9.50;2.58;;;19.20;65.50;;;;;;1826808;77;21494;-60
2022/05/23 05:42:02;;;;;;;4.87;2.35;;;19.20;65.20;;;;;;1826794;77;21464;-59
2022/05/23 05:44:35;;;;;;;5.50;2.02;;;19.20;65.20;;;;;;1825788;78;21519;-59
2022/05/23 05:47:08;;;;;;;2.85;1.90;;;19.20;65.30;;;;;;1826876;77;21119;-59
2022/05/23 05:49:40;;;;;;;5.65;1.77;;;19.20;65.50;;;;;;1826874;77;21157;-59
2022/05/23 05:52:13;;;;;;;3.33;1.80;;;19.20;65.40;;;;;;1826550;78;21510;-59
2022/05/23 05:54:57;;;;;;;7.33;2.20;;;19.20;65.70;;;;;;1829147;76;21084;-60
2022/05/23 05:57:27;;;;;;;3.08;2.10;;;19.10;65.90;;;;;;1856615;77;21060;-59
2022/05/23 05:59:58;;;;;;;3.95;2.00;;;19.10;65.20;;;;;;1856065;77;21052;-59
2022/05/23 06:02:28;;;;;;;2.87;2.05;;;19.10;64.90;;;;;;1856410;77;21076;-59
2022/05/23 06:04:57;;;;;;;2.47;1.60;;;19.00;65.00;;;;;;1856457;77;21049;-59
2022/05/23 06:13:16;;;;;;;3.70;1.67;;;19.10;63.60;;;;;;1852119;77;21169;-59
2022/05/23 06:15:47;;;;;;;7.92;1.60;;;19.00;63.30;;;;;;1854195;77;21064;-59
2022/05/23 06:18:16;;;;;;;7.92;4.37;;;19.10;63.40;;;;;;1856357;77;21044;-59
2022/05/23 06:20:49;;;;;;;5.85;2.62;;;19.20;63.00;;;;;;1856612;77;21063;-59
2022/05/23 06:23:18;;;;;;;3.22;2.00;;;19.40;62.80;;;;;;1856440;77;21542;-59
2022/05/23 06:25:49;;;;;;;5.17;2.72;;;19.50;61.60;;;;;;1854690;77;21528;-59
2022/05/23 06:28:20;;;;;;;5.90;1.90;;;19.60;61.30;;;;;;1855636;77;21052;-59
2022/05/23 06:30:49;;;;;;;3.30;1.82;;;19.60;61.30;;;;;;1856392;77;21124;-58
2022/05/23 06:33:20;;;;;;;17.90;6.58;;;19.70;61.50;;;;;;1854540;77;21143;-59
2022/05/23 06:35:51;;;;;;;12.58;6.67;;;19.80;62.30;;;;;;1853984;77;21120;-59
2022/05/23 06:38:24;;;;;;;9.63;6.92;;;19.60;61.20;;;;;;1856019;77;21147;-59
2022/05/23 06:40:55;;;;;;;12.50;11.22;;;19.50;61.60;;;;;;1847723;77;21529;-59
2022/05/23 06:43:43;;;;;;;10.48;3.77;;;19.40;61.40;;;;;;1856303;77;21133;-59
2022/05/23 06:46:30;;;;;;;5.87;3.20;;;19.40;61.80;;;;;;1856402;77;21578;-59
2022/05/23 06:49:13;;;;;;;8.28;3.67;;;19.40;62.00;;;;;;1856307;77;21073;-59
2022/05/23 06:51:49;;;;;;;5.87;2.17;;;19.50;62.10;;;;;;1854632;77;21068;-59
2022/05/23 06:54:15;;;;;;;9.73;6.20;;;19.60;62.10;;;;;;1856127;77;21061;-59
2022/05/23 06:56:48;;;;;;;4.58;2.50;;;19.80;61.70;;;;;;1835467;77;21174;-59
2022/05/23 06:59:20;;;;;;;10.75;7.80;;;19.90;60.90;;;;;;1825797;77;21209;-59
2022/05/23 07:01:49;;;;;;;15.43;7.15;;;20.00;60.30;;;;;;1826920;78;21119;-59
2022/05/23 07:12:57;;;;;;;11.60;2.65;;;19.40;61.30;;;;;;1807829;78;21146;-59
2022/05/23 07:15:27;;;;;;;2.83;1.72;;;19.40;61.60;;;;;;1833078;77;21052;-59
2022/05/23 07:17:57;;;;;;;2.62;2.00;;;19.50;61.20;;;;;;1834078;78;21142;-59
2022/05/23 07:20:28;;;;;;;2.65;1.27;;;19.70;60.10;;;;;;1829596;78;21080;-59
2022/05/23 07:23:02;;;;;;;2.43;1.50;;;19.80;58.80;;;;;;1832482;78;21049;-59
2022/05/23 07:25:32;;;;;;;3.27;1.90;;;19.80;58.50;;;;;;1833958;78;21028;-59
2022/05/23 07:28:02;;;;;;;2.45;1.65;;;19.80;58.60;;;;;;1833636;78;21045;-60
2022/05/23 07:30:33;;;;;;;5.30;1.77;;;19.70;58.30;;;;;;1832574;78;21105;-58
2022/05/23 07:33:02;;;;;;;2.67;1.77;;;19.60;59.30;;;;;;1833340;78;21033;-61
2022/05/23 07:35:43;;;;;;;2.37;1.50;;;19.60;60.60;;;;;;1809336;78;21049;-59
2022/05/23 07:38:13;;;;;;;2.92;1.10;;;19.60;59.50;;;;;;1833126;78;21146;-61
2022/05/23 07:40:44;;;;;;;3.15;1.77;;;19.50;59.00;;;;;;1834417;77;21060;-60
2022/05/23 07:43:16;;;;;;;2.70;1.32;;;19.50;59.80;;;;;;1856368;76;21069;-62
2022/05/23 07:45:45;;;;;;;3.55;2.12;;;19.40;60.00;;;;;;1857333;77;21009;-58
2022/05/23 07:48:16;;;;;;;1.42;1.32;;;19.50;60.70;;;;;;1857015;76;21125;-60
2022/05/23 07:50:47;;;;;;;4.47;1.62;;;19.40;60.00;;;;;;1856927;77;21523;-59
2022/05/23 08:01:49;;;;;;;6.55;2.30;;;19.20;60.90;;;;;;1887001;76;21095;-60
2022/05/23 08:04:19;;;;;;;8.65;3.30;;;19.10;61.20;;;;;;1886921;76;21166;-59
2022/05/23 08:06:51;;;;;;;2.42;1.50;;;19.10;60.50;;;;;;1886568;76;21162;-59
2022/05/23 08:09:21;;;;;;;8.20;2.20;;;19.10;60.50;;;;;;1886898;76;21065;-59
2022/05/23 08:11:53;;;;;;;13.03;2.52;;;19.20;60.00;;;;;;1884917;76;21492;-59
2022/05/23 08:14:23;;;;;;;4.20;1.62;;;19.30;59.60;;;;;;1887236;75;21037;-59
2022/05/23 08:17:06;;;;;;;3.05;1.65;;;19.30;58.00;;;;;;1886215;76;21048;-59
2022/05/23 08:19:41;;;;;;;4.62;1.77;;;19.30;57.80;;;;;;1887219;75;21065;-60
2022/05/23 08:22:12;;;;;;;7.35;2.22;;;19.30;57.50;;;;;;1885995;75;21040;-65
2022/05/23 08:24:43;;;;;;;5.35;1.72;;;19.30;57.40;;;;;;1886177;76;21185;-63
2022/05/23 08:27:12;;;;;;;2.27;1.47;;;19.30;57.70;;;;;;1886991;75;21029;-63
2022/05/23 08:29:45;;;;;;;3.95;1.52;;;19.40;56.70;;;;;;1885998;76;21598;-63
2022/05/23 08:32:16;;;;;;;2.98;1.30;;;19.50;56.80;;;;;;1886941;76;21115;-62
2022/05/23 08:34:52;;;;;;;15.68;5.53;;;19.60;57.30;;;;;;1885414;76;21122;-63
2022/05/23 08:37:18;;;;;;;16.35;8.38;;;19.60;57.10;;;;;;1886768;76;21045;-63
2022/05/23 08:39:47;;;;;;;5.62;2.40;;;19.60;56.90;;;;;;1887073;76;21574;-63
2022/05/23 08:42:21;;;;;;;3.22;1.30;;;19.60;57.30;;;;;;1887014;76;21114;-63
2022/05/23 08:45:03;;;;;;;2.15;1.20;;;19.70;57.00;;;;;;1884574;76;21095;-63
2022/05/23 08:47:56;;;;;;;2.70;1.20;;;19.80;57.40;;;;;;1886902;75;21483;-63
2022/05/23 08:51:07;;;;;;;2.87;1.40;;;20.00;57.30;;;;;;1886034;76;21170;-63
2022/05/23 08:53:40;;;;;;;5.92;2.70;;;20.00;57.40;;;;;;1943317;73;21156;-63
2022/05/23 08:56:36;;;;;;;4.60;2.05;;;19.90;57.60;;;;;;1949431;73;21042;-63
2022/05/23 08:59:25;;;;;;;6.17;1.15;;;19.90;57.40;;;;;;1948252;73;21058;-63
2022/05/23 09:02:00;;;;;;;5.95;1.55;;;19.80;58.60;;;;;;1935401;73;21489;-62
2022/05/23 09:04:32;;;;;;;4.78;1.20;;;19.70;59.10;;;;;;1949588;73;21026;-62
2022/05/23 09:07:03;;;;;;;5.40;2.10;;;19.80;59.20;;;;;;1947829;73;21480;-68
2022/05/23 09:09:34;;;;;;;5.33;1.60;;;19.70;58.90;;;;;;1945124;74;21104;-68
2022/05/23 09:12:09;;;;;;;4.72;1.40;;;19.70;58.90;;;;;;1945484;73;21043;-67
2022/05/23 09:14:40;;;;;;;4.00;1.30;;;19.60;59.10;;;;;;1941588;73;21548;-61
2022/05/23 09:17:28;;;;;;;2.20;0.95;;;19.50;59.40;;;;;;1935441;73;21143;-62
2022/05/23 09:20:02;;;;;;;5.05;1.82;;;19.50;59.70;;;;;;1932919;73;21481;-61
2022/05/23 09:22:43;;;;;;;7.60;1.67;;;19.40;59.80;;;;;;1940977;73;21121;-60
2022/05/23 09:25:11;;;;;;;10.95;3.92;;;19.20;59.30;;;;;;1944244;74;21069;-62
2022/05/23 09:27:46;;;;;;;23.90;12.15;;;19.10;59.70;;;;;;1939690;73;21019;-68
2022/05/23 09:30:16;;;;;;;;;;;19.00;59.40;;;;;;1936831;74;21014;-61
2022/05/23 09:32:56;;;;;;;5.22;1.77;;;18.80;59.60;;;;;;1942194;73;20224;-64
2022/05/23 09:35:31;;;;;;;7.00;3.08;;;18.70;60.00;;;;;;1938444;73;21062;-63
2022/05/23 09:38:14;;;;;;;2.83;1.37;;;18.70;60.80;;;;;;1935372;73;21050;-60
2022/05/23 09:40:46;;;;;;;2.52;0.90;;;18.60;61.00;;;;;;1932802;73;21026;-62
2022/05/23 09:49:15;;;;;;;1.30;0.90;;;18.60;61.20;;;;;;1940020;73;21085;-65
2022/05/23 09:51:56;;;;;;;2.05;1.27;;;18.60;61.30;;;;;;1934769;73;21062;-65
2022/05/23 09:54:37;;;;;;;2.90;1.30;;;18.60;61.60;;;;;;1887487;74;21553;-62
2022/05/23 09:57:06;;;;;;;3.80;1.90;;;18.60;61.80;;;;;;1877500;76;21027;-65
2022/05/23 09:59:37;;;;;;;3.05;1.57;;;18.70;61.70;;;;;;1876637;76;21489;-70
2022/05/23 10:02:32;;;;;;;6.17;2.80;;;18.80;61.30;;;;;;1877990;75;21105;-63
2022/05/23 10:05:01;;;;;;;9.28;1.95;;;18.90;61.00;;;;;;1877945;76;21054;-64
2022/05/23 10:07:36;;;;;;;3.50;1.80;;;19.00;61.50;;;;;;1877733;76;21074;-61
2022/05/23 10:10:26;;;;;;;4.80;2.05;;;19.00;60.70;;;;;;1878047;75;21582;-62
2022/05/23 10:13:33;;;;;;;11.75;1.98;;;19.00;60.60;;;;;;1877808;76;21046;-61
2022/05/23 10:16:01;;;;;;;4.85;1.17;;;19.00;61.00;;;;;;1877386;73;21163;-61
2022/05/23 10:18:33;;;;;;;2.33;1.25;;;19.00;61.00;;;;;;1877922;75;21070;-62
2022/05/23 10:21:04;;;;;;;2.50;1.40;;;18.90;60.50;;;;;;1875571;75;21478;-61
2022/05/23 10:23:35;;;;;;;3.30;1.47;;;18.80;60.80;;;;;;1875221;75;21563;-60
2022/05/23 10:26:06;;;;;;;2.12;1.40;;;18.80;61.10;;;;;;1885230;74;21258;-60
2022/05/23 10:29:06;;;;;;;6.12;2.15;;;18.80;61.40;;;;;;1923506;74;21109;-62
2022/05/23 10:31:52;;;;;;;7.87;4.60;;;18.80;61.30;;;;;;1921147;74;21079;-62
2022/05/23 10:34:37;;;;;;;;;;;18.70;60.80;;;;;;1931456;74;21148;-59
2022/05/23 10:37:09;;;;;;;11.12;2.02;;;18.60;61.30;;;;;;1908730;74;20160;-66
2022/05/23 10:42:52;;;;;;;7.10;2.20;;;18.40;62.20;;;;;;1919023;74;21105;-66
2022/05/23 10:45:39;;;;;;;3.92;1.80;;;18.30;61.90;;;;;;1864899;76;21014;-59
2022/05/23 10:48:11;;;;;;;1.57;1.30;;;18.40;62.10;;;;;;1843221;76;21502;-60
2022/05/23 10:51:00;;;;;;;2.00;1.20;;;18.40;62.40;;;;;;1869003;76;21094;-58
2022/05/23 10:53:50;;;;;;;5.28;1.40;;;18.50;62.70;;;;;;1829795;78;21138;-63
2022/05/23 10:56:31;;;;;;;7.40;1.90;;;18.60;62.20;;;;;;1835781;77;21083;-61
2022/05/23 11:02:09;;;;;;;7.90;2.65;;;18.80;61.40;;;;;;1861803;76;21111;-64
2022/05/23 11:04:50;;;;;;;5.10;2.60;;;18.80;61.00;;;;;;1862427;76;21550;-62
2022/05/23 11:07:40;;;;;;;4.15;1.82;;;18.80;61.20;;;;;;1863270;76;21207;-60
2022/05/23 11:10:27;;;;;;;3.42;0.95;;;18.80;61.30;;;;;;1859460;77;21365;-62
2022/05/23 11:13:17;;;;;;;4.70;1.80;;;18.80;61.10;;;;;;1862849;77;21096;-66
2022/05/23 11:16:07;;;;;;;6.83;1.98;;;18.80;60.90;;;;;;1863620;77;21174;-62
2022/05/23 11:18:52;;;;;;;6.50;1.35;;;18.90;60.70;;;;;;1863058;77;21088;-61
2022/05/23 11:21:36;;;;;;;4.37;1.27;;;18.90;61.20;;;;;;1863601;77;21139;-62
2022/05/23 11:24:29;;;;;;;3.45;1.30;;;18.90;61.20;;;;;;1838282;77;21049;-60
2022/05/23 11:35:54;;;;;;;4.33;1.98;;;19.00;60.60;;;;;;1840152;77;21196;-59
2022/05/23 11:38:24;;;;;;;1.62;1.20;;;18.90;60.70;;;;;;1840318;78;21184;-61
2022/05/23 11:41:32;;;;;;;1.00;0.90;;;18.90;61.00;;;;;;1834789;77;22133;-62
2022/05/23 11:44:04;;;;;;;5.35;1.17;;;18.80;61.30;;;;;;1890477;75;21495;-60
2022/05/23 11:47:01;;;;;;;6.60;1.30;;;18.80;61.60;;;;;;1889175;76;21201;-59
2022/05/23 11:49:45;;;;;;;8.85;2.00;;;18.80;61.50;;;;;;1872049;75;21127;-59
2022/05/23 11:52:27;;;;;;;3.30;1.92;;;18.80;61.50;;;;;;1834972;77;21161;-58
2022/05/23 11:54:56;;;;;;;2.45;1.30;;;18.80;60.90;;;;;;1867121;75;21491;-59
2022/05/23 11:57:37;;;;;;;3.90;1.50;;;18.70;61.40;;;;;;1861513;77;21351;-61
2022/05/23 12:00:36;;;;;;;7.90;2.98;;;18.60;61.30;;;;;;1861580;76;21057;-61
2022/05/23 12:03:16;;;;;;;3.08;1.15;;;18.50;62.30;;;;;;1838696;77;21146;-62
2022/05/23 12:05:45;;;;;;;6.00;1.52;;;18.50;63.30;;;;;;1837604;78;21113;-60
2022/05/23 12:08:31;;;;;;;2.50;1.15;;;18.30;64.30;;;;;;1867506;77;21005;-60
2022/05/23 12:11:01;;;;;;;;;;;18.20;64.80;;;;;;1865051;77;21432;-62
2022/05/23 12:13:35;;;;;;;1.75;1.25;;;18.10;66.50;;;;;;1862469;77;20143;-61
2022/05/23 12:16:26;;;;;;;2.22;1.47;;;18.00;66.00;;;;;;1862374;77;21005;-61
2022/05/23 12:19:07;;;;;;;5.83;1.60;;;17.90;66.30;;;;;;1861808;76;21558;-61
2022/05/23 12:21:40;;;;;;;3.17;1.45;;;17.70;67.70;;;;;;1862295;77;21069;-61
2022/05/23 12:24:26;;;;;;;2.02;1.42;;;17.60;67.60;;;;;;1862353;77;21002;-61
2022/05/23 12:26:58;;;;;;;2.60;1.90;;;17.50;68.20;;;;;;1862368;77;21507;-61
2022/05/23 12:29:34;;;;;;;1.47;1.20;;;17.50;68.60;;;;;;1862330;77;21107;-61
2022/05/23 12:32:09;;;;;;;5.40;1.82;;;17.40;69.30;;;;;;1862419;77;21037;-61
2022/05/23 12:34:42;;;;;;;4.37;1.80;;;17.40;69.80;;;;;;1861747;76;21119;-61
2022/05/23 12:37:32;;;;;;;3.87;1.80;;;17.30;69.70;;;;;;1862318;76;21113;-61
2022/05/23 12:40:15;;;;;;;4.95;1.60;;;17.30;69.80;;;;;;1862554;77;21500;-61
2022/05/23 12:43:03;;;;;;;2.80;1.98;;;17.30;69.90;;;;;;1874038;75;21061;-61
2022/05/23 12:46:01;;;;;;;1.72;1.50;;;17.30;69.70;;;;;;1910898;75;21124;-61
2022/05/23 12:48:43;;;;;;;7.33;2.37;;;17.40;69.60;;;;;;1904301;75;21048;-61
2022/05/23 12:51:30;;;;;;;4.80;2.95;;;17.40;69.40;;;;;;1918933;75;21029;-61
2022/05/23 12:54:23;;;;;;;13.78;3.27;;;17.40;69.30;;;;;;1919756;74;21065;-59
2022/05/23 12:57:20;;;;;;;3.52;2.83;;;17.50;69.80;;;;;;1919465;75;21110;-58
2022/05/23 12:59:52;;;;;;;11.25;4.40;;;17.60;69.90;;;;;;1904211;75;21033;-58
2022/05/23 13:02:29;;;;;;;4.90;2.42;;;17.80;69.60;;;;;;1912463;75;21468;-59
2022/05/23 13:05:06;;;;;;;4.90;2.58;;;18.00;69.30;;;;;;1900002;75;21478;-58
2022/05/23 13:07:47;;;;;;;2.77;2.42;;;18.10;68.50;;;;;;1900326;74;21125;-58
2022/05/23 13:10:25;;;;;;;12.03;3.45;;;18.10;68.10;;;;;;1900126;75;21148;-58
2022/05/23 13:13:12;;;;;;;3.83;2.58;;;18.10;68.00;;;;;;1899549;75;21028;-59
2022/05/23 13:15:42;;;;;;;7.00;3.20;;;18.10;67.60;;;;;;1900221;75;21023;-59
2022/05/23 13:23:54;;;;;;;8.53;3.12;;;18.10;67.90;;;;;;1900365;75;21032;-59
2022/05/23 13:26:26;;;;;;;5.15;1.85;;;18.10;67.70;;;;;;1900304;75;21052;-59
2022/05/23 13:28:55;;;;;;;5.90;3.30;;;18.20;67.60;;;;;;1900210;75;21091;-59
2022/05/23 13:31:28;;;;;;;8.08;3.90;;;18.20;67.20;;;;;;1900378;75;21074;-59
2022/05/23 13:33:59;;;;;;;7.15;2.95;;;18.30;67.00;;;;;;1900328;74;21114;-59
2022/05/23 13:36:46;;;;;;;6.50;2.30;;;18.30;67.10;;;;;;1900221;75;21028;-59
2022/05/23 13:39:18;;;;;;;6.05;2.15;;;18.30;67.00;;;;;;1899832;75;21138;-59
2022/05/23 13:41:47;;;;;;;3.55;1.30;;;18.40;66.60;;;;;;1900285;75;21028;-59
2022/05/23 13:44:24;;;;;;;6.60;2.25;;;18.40;66.20;;;;;;1876559;74;21051;-59
2022/05/23 13:46:56;;;;;;;4.72;2.25;;;18.40;66.00;;;;;;1855255;77;21041;-59
2022/05/23 13:49:31;;;;;;;2.70;1.80;;;18.50;66.00;;;;;;1864433;76;21059;-59
2022/05/23 13:52:03;;;;;;;4.45;1.98;;;18.50;65.60;;;;;;1855403;77;21038;-59
2022/05/23 13:54:36;;;;;;;7.17;4.22;;;18.60;65.40;;;;;;1863562;77;21507;-59
2022/05/23 13:57:09;;;;;;;4.42;1.62;;;18.60;65.40;;;;;;1855280;77;21139;-59
2022/05/23 13:59:41;;;;;;;2.98;1.60;;;18.60;65.20;;;;;;1864361;76;21551;-59
2022/05/23 14:02:16;;;;;;;2.85;1.50;;;18.60;65.00;;;;;;1855391;77;21540;-59
2022/05/23 14:04:47;;;;;;;1.75;1.42;;;18.50;64.70;;;;;;1864927;77;21004;-59
2022/05/23 14:07:19;;;;;;;7.65;2.00;;;18.50;64.70;;;;;;1855320;77;21096;-59
2022/05/23 14:09:51;;;;;;;1.77;1.37;;;18.50;64.50;;;;;;1864905;76;21056;-59
2022/05/23 14:12:29;;;;;;;3.80;1.87;;;18.40;64.50;;;;;;1855386;77;21469;-59
2022/05/23 14:15:04;;;;;;;3.55;1.70;;;18.30;64.40;;;;;;1864616;77;21060;-59
2022/05/23 14:17:37;;;;;;;10.23;2.08;;;18.30;64.30;;;;;;1855372;77;21073;-59
2022/05/23 14:20:32;;;;;;;2.95;1.57;;;18.30;64.40;;;;;;1864910;77;21079;-59
2022/05/23 14:23:10;;;;;;;4.30;1.45;;;18.30;64.40;;;;;;1855456;77;21014;-59
2022/05/23 14:25:50;;;;;;;1.67;1.37;;;18.20;64.20;;;;;;1864950;77;21102;-58
2022/05/23 14:28:25;;;;;;;6.60;1.70;;;18.20;64.10;;;;;;1849127;77;21151;-58
2022/05/23 14:31:01;;;;;;;4.10;1.27;;;18.20;64.00;;;;;;1865082;76;21071;-58
2022/05/23 14:33:36;;;;;;;6.12;1.57;;;18.20;64.30;;;;;;1855333;77;21021;-58
2022/05/23 14:36:10;;;;;;;8.48;2.05;;;18.10;64.40;;;;;;1864963;77;21028;-58